createdAt,value
2022-10-12T00:02:10.333Z,100925.37
2022-10-12T00:04:39.360Z,100915.97
2022-10-12T00:07:08.610Z,100913.41
2022-10-12T00:09:39.499Z,100914.87
2022-10-12T00:12:09.710Z,100918.37
2022-10-12T00:14:39.843Z,100918.31
2022-10-12T00:17:08.841Z,100919.78
2022-10-12T00:19:37.587Z,100917.47
2022-10-12T00:22:07.066Z,100915.75
2022-10-12T00:24:39.317Z,100919.28
2022-10-12T00:27:11.019Z,100911.69
2022-10-12T00:29:41.217Z,100913.12
2022-10-12T00:32:11.047Z,100915.59
2022-10-12T00:34:40.967Z,100914.66
2022-10-12T00:37:10.670Z,100921.16
2022-10-12T00:39:39.236Z,100912.19
2022-10-12T00:42:08.280Z,100912.09
2022-10-12T00:44:45.137Z,100913.53
2022-10-12T00:47:24.183Z,100913.25
2022-10-12T00:50:17.091Z,100919.38
2022-10-12T00:52:53.944Z,100910.94
2022-10-12T00:55:25.293Z,100917.41
2022-10-12T00:57:55.728Z,100913.53
2022-10-12T01:00:24.655Z,100915.28
2022-10-12T01:02:54.454Z,100916.66
2022-10-12T01:05:24.796Z,100921.31
2022-10-12T01:07:55.441Z,100922.00
2022-10-12T01:10:25.492Z,100922.06
2022-10-12T01:12:55.885Z,100931.69
2022-10-12T01:15:34.261Z,100925.16
2022-10-12T01:18:28.160Z,100930.91
2022-10-12T01:21:07.937Z,100935.25
2022-10-12T01:23:54.973Z,100936.25
2022-10-12T01:26:30.073Z,100936.84
2022-10-12T01:29:25.929Z,100942.37
2022-10-12T01:32:10.932Z,100940.06
2022-10-12T01:34:52.632Z,100946.28
2022-10-12T01:37:28.605Z,100943.22
2022-10-12T01:40:00.227Z,100944.88
2022-10-12T01:42:40.566Z,100943.03
2022-10-12T01:45:19.232Z,100947.72
2022-10-12T01:47:53.735Z,100947.56
2022-10-12T01:50:22.846Z,100943.97
2022-10-12T01:52:54.599Z,100943.94
2022-10-12T01:55:41.187Z,100947.12
2022-10-12T01:58:13.189Z,100948.66
2022-10-12T02:00:47.098Z,100951.72
2022-10-12T02:03:23.202Z,100950.84
2022-10-12T02:06:13.687Z,100945.00
2022-10-12T02:08:51.084Z,100948.28
2022-10-12T02:11:24.340Z,100955.87
2022-10-12T02:14:03.476Z,100959.37
2022-10-12T02:16:38.270Z,100946.13
2022-10-12T02:19:08.230Z,100950.09
2022-10-12T02:21:36.384Z,100955.47
2022-10-12T02:24:07.036Z,100952.94
2022-10-12T02:26:36.604Z,100953.75
2022-10-12T02:29:06.831Z,100944.63
2022-10-12T02:31:57.042Z,100947.53
2022-10-12T02:34:45.469Z,100944.00
2022-10-12T02:37:25.972Z,100949.47
2022-10-12T02:39:57.136Z,100946.78
2022-10-12T02:42:41.908Z,100942.37
2022-10-12T02:45:19.959Z,100937.75
2022-10-12T02:47:50.340Z,100941.84
2022-10-12T02:50:18.391Z,100944.75
2022-10-12T02:52:49.782Z,100946.34
2022-10-12T02:55:17.931Z,100947.78
2022-10-12T02:57:46.222Z,100955.78
2022-10-12T03:00:14.857Z,100943.66
2022-10-12T03:02:42.783Z,100951.69
2022-10-12T03:05:11.004Z,100953.50
2022-10-12T03:07:40.455Z,100949.00
2022-10-12T03:10:08.841Z,100955.41
2022-10-12T03:12:39.550Z,100957.88
2022-10-12T03:15:10.764Z,100958.78
2022-10-12T03:17:38.877Z,100958.69
2022-10-12T03:20:07.560Z,100953.75
2022-10-12T03:22:35.247Z,100959.63
2022-10-12T03:25:06.161Z,100964.75
2022-10-12T03:27:34.653Z,100952.31
2022-10-12T03:30:02.171Z,100957.19
2022-10-12T03:32:29.990Z,100957.16
2022-10-12T03:34:58.112Z,100956.13
2022-10-12T03:37:25.884Z,100953.16
2022-10-12T03:39:54.761Z,100965.56
2022-10-12T03:42:22.595Z,100951.06
2022-10-12T03:44:50.531Z,100951.91
2022-10-12T03:47:18.548Z,100959.16
2022-10-12T03:49:45.997Z,100960.34
2022-10-12T03:52:14.963Z,100956.44
2022-10-12T03:54:43.162Z,100957.91
2022-10-12T03:57:10.977Z,100954.66
2022-10-12T03:59:38.552Z,100948.91
2022-10-12T04:02:06.953Z,100952.69
2022-10-12T04:04:35.593Z,100956.25
2022-10-12T04:07:03.722Z,100949.56
2022-10-12T04:09:33.143Z,100947.34
2022-10-12T04:12:01.309Z,100939.09
2022-10-12T04:14:29.487Z,100945.22
2022-10-12T04:16:57.541Z,100946.19
2022-10-12T04:19:25.650Z,100948.75
2022-10-12T04:21:53.400Z,100953.53
2022-10-12T04:24:22.895Z,100960.34
2022-10-12T04:26:51.882Z,100952.88
2022-10-12T04:29:19.808Z,100954.00
2022-10-12T04:31:47.407Z,100957.19
2022-10-12T04:34:15.556Z,100954.28
2022-10-12T04:36:43.124Z,100954.53
2022-10-12T04:39:10.648Z,100955.06
2022-10-12T04:41:39.775Z,100954.75
2022-10-12T04:44:08.517Z,100957.75
2022-10-12T04:46:36.301Z,100963.16
2022-10-12T04:49:04.575Z,100964.53
2022-10-12T04:51:32.503Z,100963.72
2022-10-12T04:54:00.269Z,100965.00
2022-10-12T04:56:28.837Z,100959.66
2022-10-12T04:58:56.382Z,100963.69
2022-10-12T05:01:23.952Z,100962.59
2022-10-12T05:03:52.013Z,100966.28
2022-10-12T05:06:19.772Z,100969.63
2022-10-12T05:08:47.568Z,100976.16
2022-10-12T05:11:15.487Z,100971.50
2022-10-12T05:13:43.175Z,100971.00
2022-10-12T05:16:10.921Z,100972.50
2022-10-12T05:18:38.960Z,100971.75
2022-10-12T05:21:06.931Z,100971.53
2022-10-12T05:23:37.361Z,100981.16
2022-10-12T05:26:06.191Z,100973.78
2022-10-12T05:28:39.846Z,100979.13
2022-10-12T05:31:08.897Z,100978.91
2022-10-12T05:33:36.971Z,100983.88
2022-10-12T05:36:05.140Z,100982.19
2022-10-12T05:38:33.036Z,100977.16
2022-10-12T05:41:01.113Z,100986.66
2022-10-12T05:43:29.329Z,100981.84
2022-10-12T05:45:57.961Z,100987.47
2022-10-12T05:48:26.149Z,100994.44
2022-10-12T05:50:54.958Z,100997.47
2022-10-12T05:53:23.822Z,100996.00
2022-10-12T05:55:55.197Z,100984.91
2022-10-12T05:58:23.631Z,100994.19
2022-10-12T06:00:51.520Z,100995.00
2022-10-12T06:03:22.929Z,100994.28
2022-10-12T06:05:53.272Z,100991.75
2022-10-12T06:08:21.554Z,100992.50
2022-10-12T06:10:51.456Z,100991.09
2022-10-12T06:13:19.865Z,100999.94
2022-10-12T06:15:48.521Z,101001.03
2022-10-12T06:18:16.918Z,101001.75
2022-10-12T06:21:03.998Z,101000.38
2022-10-12T06:23:41.233Z,101001.00
2022-10-12T06:26:09.179Z,100998.00
2022-10-12T06:28:37.003Z,101005.28
2022-10-12T06:31:05.679Z,101000.56
2022-10-12T06:33:33.665Z,101013.84
2022-10-12T06:36:01.309Z,101006.56
2022-10-12T06:38:29.409Z,101013.50
2022-10-12T06:40:57.087Z,101009.41
2022-10-12T06:43:25.190Z,101014.66
2022-10-12T06:45:53.812Z,101016.91
2022-10-12T06:48:21.828Z,101014.41
2022-10-12T06:50:50.157Z,101007.88
2022-10-12T06:53:20.772Z,101020.78
2022-10-12T06:55:49.109Z,101014.47
2022-10-12T06:58:16.714Z,101026.09
2022-10-12T07:00:44.754Z,101024.84
2022-10-12T07:03:13.405Z,101027.59
2022-10-12T07:05:41.142Z,101026.75
2022-10-12T07:08:09.138Z,101023.06
2022-10-12T07:10:37.018Z,101024.75
2022-10-12T07:13:05.594Z,101024.47
2022-10-12T07:15:33.581Z,101023.78
2022-10-12T07:18:01.151Z,101021.91
2022-10-12T07:20:28.866Z,101024.31
2022-10-12T07:22:57.173Z,101028.22
2022-10-12T07:25:25.308Z,101018.31
2022-10-12T07:27:53.275Z,101018.81
2022-10-12T07:30:21.330Z,101017.59
2022-10-12T07:32:49.375Z,101023.91
2022-10-12T07:35:17.147Z,101020.44
2022-10-12T07:37:45.958Z,101019.78
2022-10-12T07:40:13.695Z,101022.78
2022-10-12T07:42:59.217Z,101023.72
2022-10-12T07:45:29.879Z,101018.50
2022-10-12T07:47:57.987Z,101020.66
2022-10-12T07:50:26.150Z,101014.53
2022-10-12T07:52:54.784Z,101023.44
2022-10-12T07:55:22.477Z,101024.84
2022-10-12T07:57:50.030Z,101025.38
2022-10-12T08:00:17.981Z,101017.19
2022-10-12T08:02:46.327Z,101019.50
2022-10-12T08:05:13.792Z,101023.72
2022-10-12T08:07:41.806Z,101023.69
2022-10-12T08:10:10.559Z,101020.94
2022-10-12T08:12:38.830Z,101028.47
2022-10-12T08:15:07.155Z,101022.25
2022-10-12T08:17:34.909Z,101012.91
2022-10-12T08:20:02.653Z,101023.81
2022-10-12T08:22:30.497Z,101018.41
2022-10-12T08:24:58.646Z,101024.47
2022-10-12T08:27:26.259Z,101025.34
2022-10-12T08:29:53.742Z,101019.34
2022-10-12T08:32:21.659Z,101010.31
2022-10-12T08:34:49.477Z,101017.56
2022-10-12T08:37:17.160Z,101016.03
2022-10-12T08:39:44.976Z,101011.50
2022-10-12T08:42:33.595Z,101007.97
2022-10-12T08:45:25.508Z,101010.00
2022-10-12T08:48:00.646Z,101003.69
2022-10-12T08:50:38.581Z,101004.41
2022-10-12T08:53:23.172Z,101005.56
2022-10-12T08:55:52.811Z,101008.03
2022-10-12T08:58:40.702Z,101018.06
2022-10-12T09:01:22.264Z,101013.66
2022-10-12T09:03:52.795Z,101022.22
2022-10-12T09:06:23.409Z,101011.62
2022-10-12T09:09:03.891Z,101018.41
2022-10-12T09:11:59.271Z,101023.16
2022-10-12T09:14:36.106Z,101013.97
2022-10-12T09:17:38.265Z,101015.75
2022-10-12T09:20:14.486Z,101012.94
2022-10-12T09:22:45.744Z,101012.22
2022-10-12T09:25:15.960Z,101019.78
2022-10-12T09:27:46.870Z,101017.59
2022-10-12T09:30:16.874Z,101013.97
2022-10-12T09:32:56.050Z,101024.94
2022-10-12T09:35:24.684Z,101016.16
2022-10-12T09:37:54.006Z,101017.31
2022-10-12T09:40:31.136Z,101014.03
2022-10-12T09:43:01.285Z,101009.44
2022-10-12T09:45:31.363Z,101013.13
2022-10-12T09:48:21.841Z,101012.25
2022-10-12T09:50:57.858Z,101009.28
2022-10-12T09:53:34.668Z,101012.84
2022-10-12T09:56:10.770Z,101008.16
2022-10-12T09:58:53.702Z,101009.25
2022-10-12T10:01:25.503Z,100999.47
2022-10-12T10:04:10.141Z,101008.91
2022-10-12T10:06:40.267Z,101012.22
2022-10-12T10:09:26.330Z,101012.41
2022-10-12T10:11:54.307Z,101004.38
2022-10-12T10:14:22.581Z,101018.84
2022-10-12T10:16:51.909Z,101010.28
2022-10-12T10:19:22.212Z,101009.06
2022-10-12T10:21:50.181Z,101003.53
2022-10-12T10:24:25.932Z,101006.50
2022-10-12T10:26:59.836Z,101013.88
2022-10-12T10:29:30.417Z,101008.22
2022-10-12T10:32:26.634Z,101006.94
2022-10-12T10:35:22.583Z,101012.69
2022-10-12T10:38:01.129Z,101013.09
2022-10-12T10:40:31.302Z,101002.78
2022-10-12T10:43:04.169Z,101004.16
2022-10-12T10:45:43.368Z,101013.13
2022-10-12T10:48:16.895Z,101006.81
2022-10-12T10:50:56.661Z,101003.19
2022-10-12T10:53:26.743Z,101002.31
2022-10-12T10:56:02.941Z,101002.59
2022-10-12T10:58:45.894Z,100998.53
2022-10-12T11:01:16.928Z,100996.75
2022-10-12T11:03:47.096Z,101001.91
2022-10-12T11:06:33.314Z,100992.75
2022-10-12T11:09:19.443Z,100990.59
2022-10-12T11:11:54.565Z,100995.22
2022-10-12T11:14:27.847Z,101005.25
2022-10-12T11:17:20.575Z,101002.50
2022-10-12T11:20:17.330Z,100995.47
2022-10-12T11:22:54.308Z,100993.91
2022-10-12T11:25:28.453Z,100993.50
2022-10-12T11:27:56.301Z,100987.31
2022-10-12T11:30:27.236Z,100997.06
2022-10-12T11:33:01.630Z,100987.31
2022-10-12T11:35:34.664Z,100990.75
2022-10-12T11:38:15.461Z,100984.41
2022-10-12T11:41:09.194Z,100986.63
2022-10-12T11:43:55.774Z,100980.63
2022-10-12T11:46:43.366Z,100980.66
2022-10-12T11:49:22.989Z,100983.00
2022-10-12T11:51:51.664Z,100981.38
2022-10-12T11:54:28.172Z,100981.78
2022-10-12T11:56:59.263Z,100970.53
2022-10-12T11:59:35.059Z,100973.88
2022-10-12T12:02:12.008Z,100973.09
2022-10-12T12:04:44.314Z,100972.91
2022-10-12T12:07:39.253Z,100976.91
2022-10-12T12:10:26.702Z,100973.75
2022-10-12T12:13:13.213Z,100962.75
2022-10-12T12:16:13.143Z,100967.12
2022-10-12T12:19:11.245Z,100966.34
2022-10-12T12:22:13.670Z,100965.25
2022-10-12T12:24:52.302Z,100961.97
2022-10-12T12:27:22.206Z,100957.28
2022-10-12T12:29:51.888Z,100956.41
2022-10-12T12:32:20.411Z,100962.84
2022-10-12T12:34:56.638Z,100961.88
2022-10-12T12:37:32.155Z,100954.19
2022-10-12T12:40:00.027Z,100953.16
2022-10-12T12:42:32.202Z,100948.75
2022-10-12T12:45:39.348Z,100949.84
2022-10-12T12:48:10.943Z,100952.22
2022-10-12T12:50:39.035Z,100947.38
2022-10-12T12:53:13.605Z,100949.47
2022-10-12T12:55:53.401Z,100944.16
2022-10-12T12:58:49.770Z,100943.22
2022-10-12T13:01:27.709Z,100941.03
2022-10-12T13:04:14.346Z,100939.22
2022-10-12T13:06:57.580Z,100933.56
2022-10-12T13:09:25.587Z,100941.13
2022-10-12T13:12:34.366Z,100939.75
2022-10-12T13:15:12.632Z,100937.97
2022-10-12T13:17:50.795Z,100937.53
2022-10-12T13:20:21.872Z,100938.09
2022-10-12T13:22:50.537Z,100931.28
2022-10-12T13:25:33.754Z,100933.72
2022-10-12T13:28:04.369Z,100931.16
2022-10-12T13:30:46.998Z,100930.66
2022-10-12T13:33:32.354Z,100929.84
2022-10-12T13:36:08.174Z,100937.69
2022-10-12T13:38:38.658Z,100930.62
2022-10-12T13:41:10.163Z,100933.16
2022-10-12T13:43:53.063Z,100933.53
2022-10-12T13:46:46.984Z,100926.66
2022-10-12T13:49:18.018Z,100932.28
2022-10-12T13:51:54.842Z,100931.38
2022-10-12T13:54:26.400Z,100931.66
2022-10-12T13:57:03.567Z,100929.75
2022-10-12T13:59:36.505Z,100926.06
2022-10-12T14:02:22.494Z,100917.88
2022-10-12T14:04:53.847Z,100922.72
2022-10-12T14:07:44.941Z,100921.41
2022-10-12T14:10:19.130Z,100919.91
2022-10-12T14:12:49.735Z,100920.03
2022-10-12T14:15:17.715Z,100917.94
2022-10-12T14:17:48.250Z,100914.38
2022-10-12T14:20:37.650Z,100922.09
2022-10-12T14:23:20.527Z,100908.13
2022-10-12T14:25:54.120Z,100914.75
2022-10-12T14:28:36.937Z,100915.06
2022-10-12T14:31:04.476Z,100912.78
2022-10-12T14:33:33.127Z,100909.72
2022-10-12T14:36:22.339Z,100912.00
2022-10-12T14:38:52.500Z,100913.47
2022-10-12T14:41:36.300Z,100906.41
2022-10-12T14:44:16.213Z,100910.38
2022-10-12T14:46:54.227Z,100910.28
2022-10-12T14:49:25.252Z,100908.09
2022-10-12T14:51:55.069Z,100908.50
2022-10-12T14:54:22.854Z,100905.28
2022-10-12T14:56:50.906Z,100903.81
2022-10-12T14:59:18.549Z,100911.87
2022-10-12T15:01:51.258Z,100910.16
2022-10-12T15:04:19.197Z,100913.69
2022-10-12T15:06:51.079Z,100907.31
2022-10-12T15:09:18.850Z,100907.97
2022-10-12T15:11:46.685Z,100904.44
2022-10-12T15:14:15.057Z,100904.63
2022-10-12T15:16:42.887Z,100907.25
2022-10-12T15:19:11.784Z,100907.81
2022-10-12T15:21:40.234Z,100909.97
2022-10-12T15:24:12.821Z,100907.94
2022-10-12T15:26:43.807Z,100910.00
2022-10-12T15:29:11.996Z,100908.25
2022-10-12T15:31:40.496Z,100905.00
2022-10-12T15:34:13.696Z,100909.31
2022-10-12T15:36:42.233Z,100908.50
2022-10-12T15:39:11.249Z,100902.84
2022-10-12T15:41:39.734Z,100903.47
2022-10-12T15:44:11.269Z,100905.09
2022-10-12T15:46:42.345Z,100901.94
2022-10-12T15:49:12.661Z,100901.00
2022-10-12T15:51:49.730Z,100907.22
2022-10-12T15:54:17.370Z,100903.22
2022-10-12T15:56:46.078Z,100909.81
2022-10-12T15:59:14.711Z,100900.41
2022-10-12T16:01:45.104Z,100906.78
2022-10-12T16:04:15.770Z,100911.03
2022-10-12T16:06:43.776Z,100905.97
2022-10-12T16:09:11.939Z,100904.91
2022-10-12T16:11:39.715Z,100914.38
2022-10-12T16:14:11.169Z,100912.66
2022-10-12T16:16:41.792Z,100911.75
2022-10-12T16:19:09.734Z,100908.66
2022-10-12T16:21:38.008Z,100914.00
2022-10-12T16:24:06.317Z,100913.69
2022-10-12T16:26:33.824Z,100908.34
2022-10-12T16:29:02.024Z,100912.81
2022-10-12T16:31:30.626Z,100914.75
2022-10-12T16:33:58.960Z,100912.63
2022-10-12T16:36:26.618Z,100912.50
2022-10-12T16:38:54.866Z,100909.69
2022-10-12T16:41:22.459Z,100913.06
2022-10-12T16:43:50.301Z,100912.88
2022-10-12T16:46:18.297Z,100915.19
2022-10-12T16:48:46.137Z,100914.63
2022-10-12T16:51:13.793Z,100909.72
2022-10-12T16:53:42.516Z,100916.97
2022-10-12T16:56:10.246Z,100919.53
2022-10-12T16:58:37.732Z,100919.78
2022-10-12T17:01:13.006Z,100919.66
2022-10-12T17:03:40.636Z,100934.94
2022-10-12T17:06:09.455Z,100928.66
2022-10-12T17:08:39.306Z,100930.72
2022-10-12T17:11:08.904Z,100935.63
2022-10-12T17:13:38.563Z,100931.16
2022-10-12T17:16:27.040Z,100928.84
2022-10-12T17:18:59.189Z,100925.00
2022-10-12T17:21:27.890Z,100924.72
2022-10-12T17:23:59.657Z,100927.44
2022-10-12T17:26:27.804Z,100930.75
2022-10-12T17:28:55.627Z,100933.22
2022-10-12T17:31:24.148Z,100936.75
2022-10-12T17:33:52.434Z,100943.06
2022-10-12T17:36:22.330Z,100939.31
2022-10-12T17:38:57.905Z,100936.19
2022-10-12T17:41:26.470Z,100942.09
2022-10-12T17:43:55.430Z,100948.38
2022-10-12T17:46:23.201Z,100935.66
2022-10-12T17:48:51.073Z,100942.28
2022-10-12T17:51:19.312Z,100945.22
2022-10-12T17:53:47.256Z,100946.13
2022-10-12T17:56:17.098Z,100942.97
2022-10-12T17:58:45.349Z,100947.44
2022-10-12T18:01:15.941Z,100950.22
2022-10-12T18:03:46.774Z,100954.53
2022-10-12T18:06:17.610Z,100951.09
2022-10-12T18:08:46.502Z,100948.78
2022-10-12T18:11:15.503Z,100942.03
2022-10-12T18:13:51.300Z,100948.22
2022-10-12T18:16:24.673Z,100947.03
2022-10-12T18:18:55.121Z,100947.72
2022-10-12T18:21:27.052Z,100944.28
2022-10-12T18:24:02.385Z,100940.09
2022-10-12T18:26:33.537Z,100939.28
2022-10-12T18:29:02.952Z,100947.47
2022-10-12T18:31:33.413Z,100947.56
2022-10-12T18:34:04.058Z,100940.47
2022-10-12T18:36:33.963Z,100946.78
2022-10-12T18:39:03.516Z,100946.50
2022-10-12T18:41:31.282Z,100945.25
2022-10-12T18:44:02.693Z,100951.44
2022-10-12T18:46:34.600Z,100950.78
2022-10-12T18:49:09.461Z,100952.44
2022-10-12T18:51:40.593Z,100947.25
2022-10-12T18:54:13.438Z,100961.38
2022-10-12T18:56:42.101Z,100948.87
2022-10-12T18:59:11.792Z,100946.25
2022-10-12T19:01:42.003Z,100952.37
2022-10-12T19:04:11.546Z,100955.16
2022-10-12T19:06:42.826Z,100961.28
2022-10-12T19:09:14.237Z,100957.56
2022-10-12T19:11:42.938Z,100959.00
2022-10-12T19:14:14.428Z,100955.91
2022-10-12T19:16:43.376Z,100966.41
2022-10-12T19:19:19.670Z,100965.63
2022-10-12T19:21:51.332Z,100969.72
2022-10-12T19:24:21.734Z,100969.28
2022-10-12T19:26:51.345Z,100965.91
2022-10-12T19:29:21.114Z,100973.78
2022-10-12T19:31:50.584Z,100970.16
2022-10-12T19:34:20.950Z,100967.72
2022-10-12T19:36:49.027Z,100972.28
2022-10-12T19:39:20.397Z,100974.16
2022-10-12T19:41:49.793Z,100971.09
2022-10-12T19:44:19.178Z,100960.09
2022-10-12T19:46:52.350Z,100964.53
2022-10-12T19:49:24.113Z,100969.31
2022-10-12T19:51:51.821Z,100973.84
2022-10-12T19:54:20.135Z,100964.47
2022-10-12T19:56:48.611Z,100966.41
2022-10-12T19:59:16.653Z,100965.84
2022-10-12T20:01:48.114Z,100964.81
2022-10-12T20:04:17.487Z,100967.91
2022-10-12T20:06:45.727Z,100968.00
2022-10-12T20:09:15.290Z,100968.03
2022-10-12T20:11:44.199Z,100965.03
2022-10-12T20:14:12.220Z,100969.59
2022-10-12T20:16:42.713Z,100972.66
2022-10-12T20:19:13.377Z,100975.19
2022-10-12T20:21:42.779Z,100979.66
2022-10-12T20:24:12.549Z,100972.87
2022-10-12T20:26:41.643Z,100978.03
2022-10-12T20:29:10.697Z,100976.72
2022-10-12T20:31:39.331Z,100974.25
2022-10-12T20:34:07.571Z,100977.62
2022-10-12T20:36:35.514Z,100977.88
2022-10-12T20:39:03.793Z,100981.84
2022-10-12T20:41:31.608Z,100978.97
2022-10-12T20:44:00.514Z,100987.31
2022-10-12T20:46:29.670Z,100984.91
2022-10-12T20:48:59.365Z,100987.88
2022-10-12T20:51:30.951Z,100990.66
2022-10-12T20:54:00.605Z,100990.16
2022-10-12T20:56:30.843Z,100990.50
2022-10-12T20:58:59.915Z,100989.84
2022-10-12T21:01:31.143Z,100992.03
2022-10-12T21:03:58.786Z,100994.53
2022-10-12T21:06:29.326Z,100995.56
2022-10-12T21:08:58.328Z,100984.88
2022-10-12T21:11:26.866Z,100994.94
2022-10-12T21:13:55.468Z,100990.44
2022-10-12T21:16:24.222Z,101001.53
2022-10-12T21:18:56.509Z,100989.44
2022-10-12T21:21:26.334Z,100988.66
2022-10-12T21:23:56.884Z,100987.69
2022-10-12T21:26:26.559Z,100983.25
2022-10-12T21:28:55.959Z,100981.19
2022-10-12T21:31:28.220Z,100977.97
2022-10-12T21:34:07.444Z,100982.28
2022-10-12T21:36:36.549Z,100978.94
2022-10-12T21:39:10.195Z,100978.63
2022-10-12T21:41:37.700Z,100973.56
2022-10-12T21:44:07.691Z,100980.38
2022-10-12T21:46:36.408Z,100982.16
2022-10-12T21:49:08.055Z,100969.69
2022-10-12T21:51:36.774Z,100977.72
2022-10-12T21:54:06.059Z,100981.16
2022-10-12T21:56:36.060Z,100978.09
2022-10-12T21:59:05.125Z,100971.53
2022-10-12T22:01:39.879Z,100978.56
2022-10-12T22:04:12.844Z,100976.41
2022-10-12T22:06:43.324Z,100979.56
2022-10-12T22:09:19.218Z,100974.25
2022-10-12T22:11:53.904Z,100970.47
2022-10-12T22:14:24.204Z,100979.56
2022-10-12T22:16:58.945Z,100979.16
2022-10-12T22:19:31.740Z,100983.16
2022-10-12T22:22:01.487Z,100981.88
2022-10-12T22:24:35.869Z,100981.75
2022-10-12T22:27:06.185Z,100975.59
2022-10-12T22:29:35.908Z,100979.13
2022-10-12T22:32:10.167Z,100984.09
2022-10-12T22:34:43.171Z,100978.88
2022-10-12T22:37:12.617Z,100975.75
2022-10-12T22:39:47.460Z,100973.41
2022-10-12T22:42:16.541Z,100968.38
2022-10-12T22:44:47.649Z,100973.13
2022-10-12T22:47:16.507Z,100969.75
2022-10-12T22:49:46.373Z,100969.97
2022-10-12T22:52:16.079Z,100974.28
2022-10-12T22:54:46.345Z,100965.22
2022-10-12T22:57:17.703Z,100960.19
2022-10-12T22:59:47.675Z,100973.00
2022-10-12T23:02:20.563Z,100971.97
2022-10-12T23:04:50.358Z,100969.84
2022-10-12T23:07:23.011Z,100973.56
2022-10-12T23:09:52.719Z,100972.25
2022-10-12T23:12:23.127Z,100968.72
2022-10-12T23:14:54.935Z,100974.41
2022-10-12T23:17:24.559Z,100972.75
2022-10-12T23:19:58.450Z,100978.12
2022-10-12T23:22:30.244Z,100970.16
2022-10-12T23:25:01.033Z,100969.44
2022-10-12T23:27:33.473Z,100970.22
2022-10-12T23:30:05.800Z,100970.81
2022-10-12T23:32:36.105Z,100974.19
2022-10-12T23:35:08.429Z,100975.25
2022-10-12T23:37:44.034Z,100967.84
2022-10-12T23:40:16.712Z,100978.56
2022-10-12T23:42:45.841Z,100975.81
2022-10-12T23:45:17.414Z,100978.34
2022-10-12T23:47:51.074Z,100977.31
2022-10-12T23:50:20.422Z,100978.84
2022-10-12T23:52:51.343Z,100977.31
2022-10-12T23:55:22.990Z,100970.53
2022-10-12T23:57:53.585Z,100974.16
